EST,Max TemperatureF,Mean TemperatureF,Min TemperatureF,Max Dew PointF,MeanDew PointF,Min DewpointF,Max Humidity, Mean Humidity, Min Humidity, Max Sea Level PressureIn, Mean Sea Level PressureIn, Min Sea Level PressureIn, Max VisibilityMiles, Mean VisibilityMiles, Min VisibilityMiles, Max Wind SpeedMPH, Mean Wind SpeedMPH, Max Gust SpeedMPH,PrecipitationIn, CloudCover, Events, WindDirDegrees
2011-11-1,64,48,31,36,33,28,92,63,34,30.32,30.27,30.21,10,10,10,9,5,12,0.00,0,,173
2011-11-2,66,54,41,40,35,32,70,52,34,30.34,30.24,30.12,10,10,10,17,9,21,0.00,0,,169
2011-11-3,57,51,45,50,45,35,100,78,56,30.11,29.92,29.82,10,7,2,20,10,26,0.73,6,Rain,158
2011-11-4,57,48,39,46,42,31,100,76,51,30.24,30.07,29.92,10,7,0,20,9,25,0.01,6,Fog-Rain,354
2011-11-5,60,46,32,36,31,27,82,61,39,30.32,30.25,30.22,10,10,10,12,7,15,0.00,0,,97
2011-11-6,60,50,39,39,36,32,85,64,42,30.39,30.30,30.20,10,10,10,20,8,25,0.00,0,,170
2011-11-7,68,56,43,52,46,39,89,72,55,30.36,30.29,30.22,10,10,10,14,7,17,0.00,0,,165
2011-11-8,70,59,48,51,47,44,86,69,51,30.22,30.14,30.04,10,10,10,16,8,22,0.00,1,,162
2011-11-9,65,54,43,58,49,32,72,68,63,30.12,29.95,29.88,10,9,2,25,15,35,0.08,5,Rain,210
2011-11-10,51,42,33,34,28,21,89,63,37,30.13,30.09,30.02,10,10,10,22,9,29,0.00,4,,264
2011-11-11,47,37,27,28,25,23,85,63,41,30.19,30.10,30.03,10,10,10,16,8,21,0.00,0,,218
2011-11-12,62,53,43,33,31,28,58,45,32,30.12,30.06,30.01,10,10,10,24,15,30,0.00,0,,202
2011-11-13,68,60,52,51,43,29,65,52,38,30.00,29.88,29.78,10,10,10,32,18,40,0.00,4,,193
2011-11-14,72,66,59,59,56,51,78,70,61,29.85,29.82,29.75,10,10,9,31,20,38,0.05,6,Rain,210
2011-11-15,60,57,53,57,54,51,100,92,84,29.96,29.89,29.83,10,9,7,17,9,24,0.58,8,Rain,181
2011-11-16,56,46,35,54,49,29,100,85,70,30.10,29.90,29.79,10,7,2,17,7,21,0.83,7,Rain,360
2011-11-17,45,36,26,29,20,11,75,53,30,30.39,30.25,30.11,10,10,10,23,8,32,0.00,2,,299
2011-11-18,49,36,23,23,18,15,74,50,26,30.46,30.34,30.21,10,10,10,17,8,25,0.00,0,,162
2011-11-19,63,51,38,48,37,23,67,58,48,30.23,30.16,30.07,10,10,10,25,15,32,0.00,1,,183
2011-11-20,60,58,56,58,55,48,100,82,64,30.22,30.17,30.12,10,6,1,24,10,32,0.73,8,Rain,204
2011-11-21,62,58,54,60,57,54,100,95,90,30.22,30.16,30.09,10,5,0,16,5,21,0.33,8,Fog-Rain,163
2011-11-22,65,58,50,63,58,49,100,92,84,30.10,29.93,29.75,10,7,2,35,14,45,1.09,8,Rain,183
2011-11-23,51,46,41,46,41,37,92,82,71,30.33,30.17,29.87,10,10,8,21,9,28,T,6,Rain,300
2011-11-24,53,47,40,42,39,36,100,82,64,30.42,30.35,30.29,10,8,5,10,6,14,0.00,4,,209
2011-11-25,62,50,38,40,34,30,85,60,35,30.31,30.23,30.14,10,10,10,21,10,25,0.00,0,,181
2011-11-26,67,57,47,48,42,31,67,58,48,30.20,30.10,29.96,10,10,10,28,14,33,T,1,,177
2011-11-27,62,53,43,57,51,42,100,82,64,29.98,29.91,29.86,10,6,2,22,10,30,1.15,8,Rain,222
2011-11-28,57,50,43,55,48,42,100,93,86,29.94,29.77,29.65,10,7,2,24,12,30,1.94,8,Rain,58
2011-11-29,46,40,34,45,35,30,100,85,70,29.87,29.74,29.67,10,9,4,18,11,24,0.15,8,Rain-Snow,232
2011-11-30,39,34,28,34,29,25,92,78,64,30.24,30.06,29.86,10,10,8,17,8,23,0.01,5,Rain,265